Time;durP1;ratioP1;P1;durP2;ratioP2;P2;SDS_P1;SDS_P2;PMS_P1;PMS_P2;Temp;Humidity;BMP_temperature;BMP_pressure;BME280_temperature;BME280_humidity;BME280_pressure;Samples;Min_cycle;Max_cycle;Signal;HPM_P1;HPM_P2
2020/12/06 00:00:49;;;;;;;15.32;8.18;;;-5.90;67.30;;;;;;5059806;28;20033;-87
2020/12/06 00:03:15;;;;;;;15.48;8.73;;;-5.90;67.30;;;;;;5077092;28;20025;-87
2020/12/06 00:05:42;;;;;;;16.85;8.00;;;-5.90;67.20;;;;;;5069198;28;20073;-89
2020/12/06 00:08:08;;;;;;;19.30;9.13;;;-5.90;67.20;;;;;;5076958;28;20020;-86
2020/12/06 00:10:34;;;;;;;16.23;8.10;;;-5.90;67.20;;;;;;5050245;28;20398;-88
2020/12/06 00:12:59;;;;;;;10.30;6.30;;;-5.90;67.30;;;;;;5074297;28;20024;-89
2020/12/06 00:15:25;;;;;;;18.95;8.43;;;-5.90;67.20;;;;;;5079141;28;20440;-88
2020/12/06 00:17:51;;;;;;;14.57;8.98;;;-6.00;67.10;;;;;;5051969;28;20025;-88
2020/12/06 00:20:18;;;;;;;17.17;8.13;;;-6.00;67.10;;;;;;5077660;28;20048;-88
2020/12/06 00:22:46;;;;;;;16.23;8.18;;;-6.00;67.10;;;;;;5060026;28;20293;-87
2020/12/06 00:25:12;;;;;;;20.05;9.45;;;-6.00;67.10;;;;;;5084643;28;20072;-87
2020/12/06 00:27:38;;;;;;;15.23;8.38;;;-6.00;67.10;;;;;;5065356;28;20052;-88
2020/12/06 00:30:09;;;;;;;13.40;6.95;;;-6.10;67.00;;;;;;5062933;28;20103;-88
2020/12/06 00:32:36;;;;;;;16.35;8.98;;;-6.00;67.00;;;;;;5071640;28;20032;-88
2020/12/06 00:35:04;;;;;;;13.48;9.02;;;-6.10;67.00;;;;;;5058092;28;20021;-88
2020/12/06 00:37:30;;;;;;;19.65;7.65;;;-6.10;67.10;;;;;;5075995;28;20028;-88
2020/12/06 00:39:56;;;;;;;18.33;9.18;;;-6.10;67.10;;;;;;5077168;28;20023;-88
2020/12/06 00:42:22;;;;;;;17.75;9.10;;;-6.10;67.20;;;;;;5060877;28;20051;-89
2020/12/06 00:44:48;;;;;;;14.57;7.68;;;-6.10;67.20;;;;;;5077746;28;20031;-88
2020/12/06 00:47:14;;;;;;;21.05;11.77;;;-6.10;67.30;;;;;;5076555;28;20017;-87
2020/12/06 00:49:40;;;;;;;14.15;8.43;;;-6.10;67.50;;;;;;5064999;28;20413;-87
2020/12/06 00:52:06;;;;;;;15.25;10.85;;;-6.10;67.50;;;;;;5086059;28;20021;-87
2020/12/06 00:54:31;;;;;;;19.85;8.70;;;-6.20;67.50;;;;;;5069566;28;20028;-89
2020/12/06 00:56:57;;;;;;;21.20;9.63;;;-6.10;67.50;;;;;;5058423;28;20047;-88
2020/12/06 00:59:24;;;;;;;16.08;10.30;;;-6.10;67.50;;;;;;5075945;28;20024;-89
2020/12/06 01:01:51;;;;;;;17.33;9.15;;;-6.20;67.50;;;;;;5076988;28;20020;-87
2020/12/06 01:04:16;;;;;;;13.98;7.65;;;-6.20;68.20;;;;;;5083519;28;20032;-88
2020/12/06 01:06:42;;;;;;;12.50;8.60;;;-6.20;67.60;;;;;;5068064;28;20031;-87
2020/12/06 01:09:08;;;;;;;15.05;8.48;;;-6.20;67.70;;;;;;5079534;28;20025;-84
2020/12/06 01:11:35;;;;;;;16.60;9.45;;;-6.20;68.30;;;;;;5098062;28;20028;-88
2020/12/06 01:14:00;;;;;;;18.92;8.35;;;-6.20;67.70;;;;;;5093550;28;20025;-86
2020/12/06 01:16:26;;;;;;;22.40;8.35;;;-6.20;67.80;;;;;;5094559;28;20024;-88
2020/12/06 01:18:52;;;;;;;17.40;9.73;;;-6.20;67.70;;;;;;5087742;28;20047;-83
2020/12/06 01:21:18;;;;;;;15.35;7.78;;;-6.20;67.80;;;;;;5098703;28;20029;-88
2020/12/06 01:23:44;;;;;;;16.52;10.23;;;-6.20;67.80;;;;;;5085223;28;20043;-87
2020/12/06 01:26:12;;;;;;;17.30;8.57;;;-6.20;67.80;;;;;;5090310;28;20024;-86
2020/12/06 01:28:38;;;;;;;20.45;8.95;;;-6.30;67.60;;;;;;5065980;28;20029;-87
2020/12/06 01:31:08;;;;;;;16.55;8.88;;;-6.30;67.80;;;;;;5078474;28;20021;-88
2020/12/06 01:33:35;;;;;;;17.00;8.77;;;-6.30;67.70;;;;;;5080011;28;20064;-88
2020/12/06 01:36:00;;;;;;;17.38;9.77;;;-6.20;67.60;;;;;;5081540;28;20020;-87
2020/12/06 01:38:26;;;;;;;18.10;8.80;;;-6.30;67.50;;;;;;5084775;28;20027;-86
2020/12/06 01:40:52;;;;;;;15.90;8.93;;;-6.20;67.60;;;;;;5076685;28;20044;-88
2020/12/06 01:43:18;;;;;;;16.45;7.72;;;-6.30;67.60;;;;;;5059297;28;20048;-88
2020/12/06 01:45:44;;;;;;;16.58;9.93;;;-6.30;67.70;;;;;;5069775;28;20012;-88
2020/12/06 01:48:10;;;;;;;18.65;9.88;;;-6.30;67.80;;;;;;5082712;28;20039;-88
2020/12/06 01:50:39;;;;;;;20.85;8.40;;;-6.30;67.70;;;;;;5069075;28;20025;-87
2020/12/06 01:53:06;;;;;;;17.75;9.95;;;-6.30;67.60;;;;;;5071812;28;20029;-88
2020/12/06 01:55:32;;;;;;;16.45;9.18;;;-6.30;67.60;;;;;;5055987;28;20021;-87
2020/12/06 01:58:07;;;;;;;13.00;8.88;;;-6.30;67.60;;;;;;5049389;28;20021;-86
2020/12/06 02:00:33;;;;;;;15.85;8.10;;;-6.30;67.60;;;;;;5057213;28;20138;-88
2020/12/06 02:03:00;;;;;;;13.95;7.32;;;-6.40;67.40;;;;;;5053724;28;20033;-87
2020/12/06 02:05:27;;;;;;;15.35;8.55;;;-6.30;67.50;;;;;;5066781;28;20430;-88
2020/12/06 02:07:57;;;;;;;13.20;8.15;;;-6.30;67.50;;;;;;5074303;28;20071;-87
2020/12/06 02:10:27;;;;;;;25.15;9.23;;;-6.40;67.50;;;;;;5074785;28;20048;-88
2020/12/06 02:12:54;;;;;;;16.17;8.18;;;-6.40;67.50;;;;;;5070989;28;20023;-88
2020/12/06 02:15:20;;;;;;;18.23;9.20;;;-6.40;67.50;;;;;;5057773;28;20021;-87
2020/12/06 02:17:47;;;;;;;7.57;5.43;;;-6.40;67.50;;;;;;5066985;28;20051;-87
2020/12/06 02:20:13;;;;;;;19.42;9.32;;;-6.40;67.50;;;;;;5058697;28;20057;-87
2020/12/06 02:22:39;;;;;;;15.38;8.90;;;-6.40;67.50;;;;;;5074311;28;20033;-86
2020/12/06 02:25:05;;;;;;;13.73;7.93;;;-6.40;67.60;;;;;;5075208;28;20527;-88
2020/12/06 02:27:31;;;;;;;11.55;6.72;;;-6.50;67.40;;;;;;5040898;28;20036;-88
2020/12/06 02:29:57;;;;;;;18.67;8.43;;;-6.50;67.50;;;;;;5053893;28;20124;-87
2020/12/06 02:32:23;;;;;;;14.70;8.35;;;-6.50;67.40;;;;;;5065766;28;20107;-89
2020/12/06 02:34:49;;;;;;;17.63;8.35;;;-6.50;67.40;;;;;;5075051;28;20517;-88
2020/12/06 02:37:15;;;;;;;15.80;6.93;;;-6.50;67.30;;;;;;5078313;28;20028;-87
2020/12/06 02:39:42;;;;;;;13.38;8.55;;;-6.50;67.40;;;;;;5081554;28;20025;-86
2020/12/06 02:42:08;;;;;;;16.67;9.52;;;-6.60;67.40;;;;;;5056439;28;20502;-89
2020/12/06 02:44:33;;;;;;;14.57;8.95;;;-6.60;67.50;;;;;;5057492;28;20033;-87
2020/12/06 02:47:00;;;;;;;30.05;12.55;;;-6.60;67.60;;;;;;5084457;28;20017;-87
2020/12/06 02:49:26;;;;;;;22.27;10.65;;;-6.60;67.70;;;;;;5073920;28;20012;-86
2020/12/06 02:51:52;;;;;;;19.75;7.63;;;-6.60;67.80;;;;;;5092491;28;20021;-86
2020/12/06 02:54:18;;;;;;;13.30;7.88;;;-6.60;67.80;;;;;;5088887;28;20017;-87
2020/12/06 02:56:44;;;;;;;23.52;9.13;;;-6.70;67.80;;;;;;5094853;28;20021;-89
2020/12/06 02:59:10;;;;;;;15.02;8.48;;;-6.70;67.80;;;;;;5086658;28;20095;-89
2020/12/06 03:01:36;;;;;;;15.68;8.10;;;-6.70;67.80;;;;;;5088952;28;20019;-88
2020/12/06 03:04:02;;;;;;;15.18;8.65;;;-6.70;67.80;;;;;;5086378;28;20036;-88
2020/12/06 03:06:28;;;;;;;16.52;9.73;;;-6.70;67.80;;;;;;5057342;28;20102;-86
2020/12/06 03:08:53;;;;;;;20.42;10.45;;;-6.70;67.80;;;;;;5079269;28;20020;-88
2020/12/06 03:11:25;;;;;;;15.70;7.85;;;-6.70;67.90;;;;;;5065593;28;20035;-86
2020/12/06 03:13:51;;;;;;;18.60;9.02;;;-6.70;68.00;;;;;;5080595;28;20024;-88
2020/12/06 03:16:17;;;;;;;15.25;8.80;;;-6.70;68.00;;;;;;5069126;28;20043;-87
2020/12/06 03:18:43;;;;;;;16.50;8.13;;;-6.70;67.90;;;;;;5063356;28;20037;-87
2020/12/06 03:21:09;;;;;;;18.40;10.82;;;-6.70;67.90;;;;;;5040994;28;20410;-87
2020/12/06 03:23:35;;;;;;;18.45;9.73;;;-6.80;67.90;;;;;;5036325;28;20321;-87
2020/12/06 03:26:00;;;;;;;14.43;10.43;;;-6.80;68.00;;;;;;5031007;28;20076;-88
2020/12/06 03:28:26;;;;;;;18.23;9.90;;;-6.80;68.20;;;;;;5030107;28;20446;-88
2020/12/06 03:30:52;;;;;;;22.17;9.43;;;-6.80;68.20;;;;;;5038268;28;20132;-88
2020/12/06 03:33:19;;;;;;;20.52;11.38;;;-6.80;68.30;;;;;;5050476;28;20057;-87
2020/12/06 03:35:44;;;;;;;17.30;9.38;;;-6.80;68.30;;;;;;5036852;28;20355;-88
2020/12/06 03:38:11;;;;;;;15.95;8.82;;;-6.80;68.20;;;;;;5025318;28;20151;-88
2020/12/06 03:40:37;;;;;;;17.55;8.20;;;-6.80;68.20;;;;;;5026060;28;20021;-89
2020/12/06 03:43:03;;;;;;;26.92;10.52;;;-6.80;68.20;;;;;;5021488;28;20098;-87
2020/12/06 03:45:29;;;;;;;19.58;10.02;;;-6.80;68.20;;;;;;5021447;28;20038;-88
2020/12/06 03:47:55;;;;;;;23.77;9.00;;;-6.80;68.20;;;;;;5020279;28;20072;-88
2020/12/06 03:50:21;;;;;;;18.13;9.88;;;-6.80;68.20;;;;;;5016631;28;20075;-85
2020/12/06 03:52:47;;;;;;;18.77;9.33;;;-6.80;68.20;;;;;;5047105;28;20033;-88
2020/12/06 03:55:15;;;;;;;16.35;10.68;;;-6.80;68.20;;;;;;5050420;28;20243;-89
2020/12/06 03:57:41;;;;;;;21.75;9.75;;;-6.80;68.30;;;;;;5058220;28;20052;-87
2020/12/06 04:00:07;;;;;;;18.13;9.55;;;-6.80;68.20;;;;;;5015967;28;20037;-87
2020/12/06 04:02:33;;;;;;;25.20;10.35;;;-6.90;68.10;;;;;;5031874;28;20030;-88
2020/12/06 04:04:59;;;;;;;28.05;10.00;;;-6.90;68.20;;;;;;5026243;28;20040;-87
2020/12/06 04:07:25;;;;;;;19.30;10.23;;;-6.80;68.10;;;;;;5037263;28;20053;-87
2020/12/06 04:09:50;;;;;;;18.92;9.73;;;-6.90;68.20;;;;;;5037889;28;20036;-88
2020/12/06 04:12:16;;;;;;;18.38;9.32;;;-6.80;68.20;;;;;;5038537;28;20021;-86
2020/12/06 04:14:42;;;;;;;19.42;10.52;;;-6.80;68.30;;;;;;5032219;28;20040;-88
2020/12/06 04:17:08;;;;;;;22.50;9.50;;;-6.80;68.30;;;;;;5019272;28;20471;-88
2020/12/06 04:19:34;;;;;;;22.88;11.23;;;-6.80;68.30;;;;;;5043646;28;20110;-87
2020/12/06 04:21:59;;;;;;;21.00;11.13;;;-6.90;68.20;;;;;;5073298;28;20040;-89
2020/12/06 04:24:25;;;;;;;16.38;11.18;;;-6.80;68.40;;;;;;5048482;28;20032;-87
2020/12/06 04:26:51;;;;;;;19.23;10.20;;;-6.90;68.30;;;;;;5042086;28;20022;-88
2020/12/06 04:29:18;;;;;;;17.33;10.43;;;-6.90;68.40;;;;;;5048458;28;20025;-89
2020/12/06 04:31:44;;;;;;;21.63;8.90;;;-6.90;68.40;;;;;;5041790;28;20022;-88
2020/12/06 04:34:10;;;;;;;16.52;8.95;;;-6.90;68.40;;;;;;5038936;28;20060;-87
2020/12/06 04:36:35;;;;;;;19.35;9.35;;;-7.00;68.30;;;;;;5020283;28;20093;-87
2020/12/06 04:39:01;;;;;;;14.85;9.40;;;-7.00;68.30;;;;;;5048153;28;20032;-87
2020/12/06 04:41:27;;;;;;;16.42;10.40;;;-7.00;68.40;;;;;;5049089;28;20025;-88
2020/12/06 04:43:53;;;;;;;16.38;8.77;;;-7.00;68.50;;;;;;5050691;28;20060;-88
2020/12/06 04:46:19;;;;;;;11.43;8.63;;;-7.00;68.50;;;;;;5040213;28;20029;-89
2020/12/06 04:49:06;;;;;;;13.90;9.10;;;-7.00;68.50;;;;;;5035985;28;20026;-88
2020/12/06 04:51:44;;;;;;;26.75;10.43;;;-7.00;68.50;;;;;;5037338;28;20486;-87
2020/12/06 04:54:11;;;;;;;15.60;9.60;;;-7.00;68.40;;;;;;5036877;28;20037;-88
2020/12/06 04:56:40;;;;;;;16.48;8.88;;;-7.00;68.50;;;;;;5038834;28;20021;-87
2020/12/06 04:59:06;;;;;;;18.60;9.68;;;-7.00;68.50;;;;;;5035635;28;20066;-87
2020/12/06 05:01:39;;;;;;;21.90;9.13;;;-7.00;68.50;;;;;;5030114;28;20386;-89
2020/12/06 05:04:16;;;;;;;20.60;9.73;;;-7.00;68.60;;;;;;5038451;28;20066;-88
2020/12/06 05:06:45;;;;;;;18.88;9.48;;;-7.00;68.70;;;;;;5043083;28;20021;-87
2020/12/06 05:09:13;;;;;;;19.73;8.88;;;-7.00;68.70;;;;;;5040555;28;20032;-88
2020/12/06 05:11:41;;;;;;;20.70;9.95;;;-7.00;68.70;;;;;;5042968;28;20032;-88
2020/12/06 05:14:07;;;;;;;14.55;10.23;;;-7.00;68.70;;;;;;5053273;28;20018;-87
2020/12/06 05:16:37;;;;;;;22.30;9.85;;;-6.90;68.70;;;;;;5055019;28;20046;-88
2020/12/06 05:19:06;;;;;;;15.90;8.85;;;-6.90;68.80;;;;;;5045958;28;20033;-86
2020/12/06 05:21:51;;;;;;;17.13;9.55;;;-6.90;68.80;;;;;;5080153;28;20024;-88
2020/12/06 05:24:17;;;;;;;17.35;8.85;;;-6.90;68.80;;;;;;5077823;28;20029;-88
2020/12/06 05:26:43;;;;;;;13.85;9.10;;;-6.90;68.70;;;;;;5080663;28;20047;-88
2020/12/06 05:29:08;;;;;;;18.25;9.27;;;-6.90;68.70;;;;;;5065143;28;20028;-87
2020/12/06 05:31:34;;;;;;;16.13;9.75;;;-6.90;68.50;;;;;;5081014;28;20482;-89
2020/12/06 05:34:01;;;;;;;19.88;9.82;;;-6.90;68.50;;;;;;5039013;28;20067;-88
2020/12/06 05:36:27;;;;;;;19.98;9.55;;;-6.90;68.40;;;;;;5077926;28;20028;-88
2020/12/06 05:38:53;;;;;;;24.60;10.38;;;-6.90;68.50;;;;;;5056781;28;20035;-89
2020/12/06 05:41:19;;;;;;;19.48;11.25;;;-6.90;68.60;;;;;;5072974;28;20026;-90
2020/12/06 05:43:45;;;;;;;17.85;10.57;;;-6.90;68.60;;;;;;5078244;28;20029;-88
2020/12/06 05:46:16;;;;;;;17.33;8.63;;;-6.90;68.60;;;;;;5076716;28;20040;-90
2020/12/06 05:48:43;;;;;;;18.77;10.00;;;-6.90;68.60;;;;;;5059095;28;20024;-88
2020/12/06 05:51:11;;;;;;;;;;;-6.90;68.70;;;;;;5060269;28;20028;-88
2020/12/06 05:53:37;;;;;;;18.88;10.30;;;-6.90;68.70;;;;;;5081510;28;19995;-88
2020/12/06 05:56:19;;;;;;;20.10;10.13;;;-6.90;68.70;;;;;;5085643;28;20105;-88
2020/12/06 05:58:50;;;;;;;19.52;10.07;;;-6.90;68.80;;;;;;5079048;28;20047;-89
2020/12/06 06:01:17;;;;;;;16.05;8.77;;;-6.90;68.70;;;;;;5060534;28;20021;-89
2020/12/06 06:03:46;;;;;;;15.38;8.23;;;-6.90;68.70;;;;;;5071959;28;20047;-89
2020/12/06 06:06:41;;;;;;;25.90;11.13;;;-6.90;68.70;;;;;;5062295;28;20040;-87
2020/12/06 06:09:10;;;;;;;18.98;9.73;;;-6.90;68.70;;;;;;5079313;28;20039;-87
2020/12/06 06:11:39;;;;;;;19.63;11.05;;;-6.90;68.60;;;;;;5082115;28;20012;-88
2020/12/06 06:14:11;;;;;;;20.27;11.18;;;-6.90;68.70;;;;;;5051304;28;20111;-88
2020/12/06 06:16:37;;;;;;;18.08;11.48;;;-6.80;68.60;;;;;;5068925;28;20370;-89
2020/12/06 06:19:05;;;;;;;21.38;10.68;;;-6.80;68.60;;;;;;5074794;28;20017;-88
2020/12/06 06:21:41;;;;;;;22.05;10.70;;;-6.80;68.60;;;;;;5073957;28;20040;-89
2020/12/06 06:24:24;;;;;;;19.65;10.98;;;-6.80;68.60;;;;;;5044557;28;20128;-89
2020/12/06 06:26:51;;;;;;;19.33;11.02;;;-6.80;68.60;;;;;;5034966;28;20025;-89
2020/12/06 06:29:19;;;;;;;16.05;9.50;;;-6.70;68.60;;;;;;5042582;28;20041;-88
2020/12/06 06:31:49;;;;;;;16.77;8.15;;;-6.70;68.40;;;;;;5053102;28;20025;-89
2020/12/06 06:34:16;;;;;;;26.02;12.52;;;-6.70;68.30;;;;;;5040553;28;20021;-88
2020/12/06 06:36:44;;;;;;;18.45;11.02;;;-6.70;68.20;;;;;;5051804;28;20017;-87
2020/12/06 06:39:16;;;;;;;17.35;10.25;;;-6.60;68.20;;;;;;5050282;28;20033;-88
2020/12/06 06:41:42;;;;;;;18.55;9.30;;;-6.60;68.10;;;;;;5042138;28;20021;-88
2020/12/06 06:44:08;;;;;;;21.80;11.15;;;-6.50;68.00;;;;;;5048572;28;20087;-88
2020/12/06 06:46:35;;;;;;;21.65;10.60;;;-6.50;67.80;;;;;;5043339;28;20081;-87
2020/12/06 06:49:12;;;;;;;20.77;11.38;;;-6.50;67.70;;;;;;5041510;28;20438;-87
2020/12/06 06:51:39;;;;;;;23.92;10.90;;;-6.40;67.50;;;;;;5045811;28;20116;-86
2020/12/06 06:54:07;;;;;;;23.13;8.82;;;-6.40;67.50;;;;;;5051063;28;20041;-89
2020/12/06 06:56:53;;;;;;;19.85;11.73;;;-6.40;67.40;;;;;;5097067;28;20032;-87
2020/12/06 06:59:39;;;;;;;22.85;10.82;;;-6.40;67.40;;;;;;5086993;28;20029;-89
2020/12/06 07:02:06;;;;;;;24.42;11.45;;;-6.30;67.40;;;;;;5085569;28;20044;-90
2020/12/06 07:04:32;;;;;;;19.60;11.18;;;-6.30;67.20;;;;;;5090250;28;20017;-88
2020/12/06 07:06:58;;;;;;;19.10;9.33;;;-6.20;67.20;;;;;;5091482;28;20046;-88
2020/12/06 07:09:29;;;;;;;19.77;10.25;;;-6.20;67.00;;;;;;5097271;28;20056;-89
2020/12/06 07:11:58;;;;;;;22.92;11.23;;;-6.20;67.10;;;;;;5081475;28;20031;-90
2020/12/06 07:14:29;;;;;;;20.92;10.00;;;-6.20;67.00;;;;;;5061639;28;20028;-88
2020/12/06 07:16:56;;;;;;;19.67;10.85;;;-6.20;66.60;;;;;;5080901;28;20029;-88
2020/12/06 07:19:23;;;;;;;24.77;13.00;;;-6.20;66.40;;;;;;5063114;28;20064;-89
2020/12/06 07:21:49;;;;;;;16.08;9.50;;;-6.10;66.60;;;;;;5061916;28;20117;-89
2020/12/06 07:24:16;;;;;;;20.63;9.90;;;-6.10;66.50;;;;;;5076606;28;20029;-90
2020/12/06 07:26:43;;;;;;;21.70;10.48;;;-6.10;66.40;;;;;;5074351;28;20386;-88
2020/12/06 07:29:09;;;;;;;22.58;12.20;;;-6.00;66.50;;;;;;5074982;28;20568;-89
2020/12/06 07:31:36;;;;;;;25.23;11.35;;;-6.00;66.50;;;;;;5096873;28;20088;-87
2020/12/06 07:34:03;;;;;;;22.00;11.50;;;-5.90;66.50;;;;;;5054463;28;20031;-89
2020/12/06 07:36:36;;;;;;;16.60;9.73;;;-5.90;66.30;;;;;;5067570;28;20079;-89
2020/12/06 07:39:15;;;;;;;24.80;10.63;;;-5.90;66.20;;;;;;5077031;28;20033;-87
2020/12/06 07:41:45;;;;;;;26.48;10.63;;;-5.80;66.20;;;;;;5056540;28;20413;-88
2020/12/06 07:44:11;;;;;;;26.02;10.98;;;-5.70;66.20;;;;;;5057203;28;20461;-88
2020/12/06 07:46:39;;;;;;;21.58;10.48;;;-5.60;66.10;;;;;;5057465;28;20029;-88
2020/12/06 07:49:05;;;;;;;20.98;11.10;;;-5.60;65.80;;;;;;5059658;28;20033;-89
2020/12/06 07:51:31;;;;;;;19.48;10.60;;;-5.50;65.60;;;;;;5063798;28;20021;-88
2020/12/06 07:54:01;;;;;;;23.75;10.48;;;-5.40;65.40;;;;;;5068037;28;20511;-90
2020/12/06 07:56:29;;;;;;;22.27;12.23;;;-5.10;65.70;;;;;;5070142;28;20025;-89
2020/12/06 07:59:18;;;;;;;29.75;13.15;;;-4.40;65.80;;;;;;5065499;28;20423;-89
2020/12/06 08:01:47;;;;;;;25.73;11.15;;;-3.40;64.50;;;;;;5066352;28;20482;-88
2020/12/06 08:04:17;;;;;;;27.55;12.35;;;-2.50;62.50;;;;;;5046967;28;20119;-90
2020/12/06 08:06:47;;;;;;;18.77;12.25;;;-1.80;59.80;;;;;;5045491;28;20049;-90
2020/12/06 08:09:14;;;;;;;18.33;11.10;;;-1.30;58.20;;;;;;5061721;28;20029;-91
2020/12/06 08:11:47;;;;;;;18.85;11.50;;;-0.80;57.10;;;;;;5059482;28;20044;-90
2020/12/06 08:14:20;;;;;;;20.17;10.65;;;-0.30;55.40;;;;;;5086550;28;20132;-91
2020/12/06 08:16:57;;;;;;;19.77;11.90;;;0.30;54.30;;;;;;5080097;28;20090;-88
2020/12/06 08:19:24;;;;;;;20.23;11.67;;;0.80;52.70;;;;;;5070324;28;20111;-90
2020/12/06 08:21:50;;;;;;;21.88;11.38;;;1.10;51.90;;;;;;5074307;28;20675;-90
2020/12/06 08:24:20;;;;;;;18.42;10.15;;;1.40;51.20;;;;;;5062232;28;20135;-88
2020/12/06 08:26:48;;;;;;;22.08;11.82;;;1.70;49.50;;;;;;5081423;28;20024;-88
2020/12/06 08:29:14;;;;;;;23.05;10.65;;;1.80;49.00;;;;;;5080566;28;20452;-90
2020/12/06 08:31:42;;;;;;;22.55;11.40;;;2.10;48.60;;;;;;5063871;28;20099;-89
2020/12/06 08:34:15;;;;;;;;;;;2.30;47.50;;;;;;5075357;28;20036;-89
2020/12/06 08:36:43;;;;;;;25.88;11.50;;;2.30;49.30;;;;;;5085730;28;19911;-89
2020/12/06 08:39:21;;;;;;;17.20;10.45;;;2.30;47.80;;;;;;5084676;28;20110;-89
2020/12/06 08:41:48;;;;;;;22.52;12.48;;;2.10;46.50;;;;;;5080078;28;20049;-89
2020/12/06 08:44:14;;;;;;;23.10;12.10;;;1.80;46.50;;;;;;5042561;28;20048;-89
2020/12/06 08:46:51;;;;;;;22.05;11.57;;;1.70;46.70;;;;;;5076019;28;20138;-89
2020/12/06 08:49:19;;;;;;;19.85;10.23;;;1.60;46.30;;;;;;5083732;28;20035;-90
2020/12/06 08:51:51;;;;;;;22.15;11.52;;;1.70;46.70;;;;;;5095982;28;20025;-89
2020/12/06 08:54:34;;;;;;;22.95;12.40;;;1.60;45.80;;;;;;5075926;28;20013;-87
2020/12/06 08:57:10;;;;;;;22.13;11.45;;;1.80;45.70;;;;;;5082545;28;20105;-88
2020/12/06 08:59:39;;;;;;;18.65;11.77;;;1.90;45.60;;;;;;5070174;28;20021;-89
2020/12/06 09:02:07;;;;;;;17.23;10.73;;;2.20;45.30;;;;;;5065120;28;20085;-87
2020/12/06 09:04:34;;;;;;;28.52;11.77;;;2.50;44.70;;;;;;5084368;28;20405;-90
2020/12/06 09:07:05;;;;;;;26.42;11.80;;;2.60;44.40;;;;;;5098730;28;20051;-89
2020/12/06 09:09:31;;;;;;;20.30;11.93;;;2.90;44.10;;;;;;5075552;28;20098;-89
2020/12/06 09:11:58;;;;;;;19.53;10.87;;;3.10;43.60;;;;;;5085190;28;20025;-90
2020/12/06 09:14:26;;;;;;;19.80;11.30;;;3.00;42.80;;;;;;5064128;28;20084;-90
2020/12/06 09:16:52;;;;;;;;;;;2.60;42.40;;;;;;5078623;28;20059;-89
2020/12/06 09:19:18;;;;;;;18.63;10.40;;;2.30;44.20;;;;;;5095806;28;19904;-91
2020/12/06 09:21:44;;;;;;;19.33;10.85;;;2.20;44.30;;;;;;5085400;28;20104;-88
2020/12/06 09:24:09;;;;;;;14.80;8.90;;;2.10;43.10;;;;;;5091014;28;20096;-90
2020/12/06 09:26:35;;;;;;;24.52;10.38;;;1.60;42.10;;;;;;5071026;28;20028;-89
2020/12/06 09:29:02;;;;;;;20.98;10.60;;;1.00;43.10;;;;;;5062432;28;20029;-87
2020/12/06 09:31:27;;;;;;;22.58;12.52;;;0.50;43.60;;;;;;5086944;28;20025;-88
2020/12/06 09:33:53;;;;;;;30.40;12.90;;;0.20;43.90;;;;;;5092248;28;20405;-90
2020/12/06 09:36:20;;;;;;;24.35;11.73;;;-0.10;44.60;;;;;;5077717;28;20021;-90
2020/12/06 09:38:46;;;;;;;24.83;10.77;;;-0.40;45.10;;;;;;5060268;28;20029;-90
2020/12/06 09:41:12;;;;;;;19.55;10.63;;;-0.60;45.80;;;;;;5077090;28;20032;-89
2020/12/06 09:43:43;;;;;;;21.92;10.32;;;-0.80;45.80;;;;;;5077207;28;20118;-88
2020/12/06 09:46:10;;;;;;;22.55;11.77;;;-1.00;46.20;;;;;;5079156;28;20027;-89
2020/12/06 09:48:37;;;;;;;21.50;11.88;;;-1.20;46.40;;;;;;5019442;28;20038;-89
2020/12/06 09:51:04;;;;;;;35.38;12.15;;;-1.30;47.10;;;;;;5012184;28;20065;-89
2020/12/06 09:53:30;;;;;;;27.07;13.70;;;-1.40;47.40;;;;;;5023591;28;20542;-90
2020/12/06 09:55:56;;;;;;;21.70;11.57;;;-1.40;47.60;;;;;;4995301;28;20033;-88
2020/12/06 09:58:22;;;;;;;28.67;12.57;;;-1.30;47.80;;;;;;5010380;28;20038;-89
2020/12/06 10:00:48;;;;;;;23.20;11.45;;;-0.60;47.80;;;;;;5014798;28;20038;-89
2020/12/06 10:03:14;;;;;;;25.05;11.77;;;0.30;47.00;;;;;;4998098;28;20466;-88
2020/12/06 10:05:41;;;;;;;17.95;11.27;;;1.00;45.50;;;;;;5013582;28;20033;-89
2020/12/06 10:08:07;;;;;;;26.08;12.63;;;1.90;44.50;;;;;;5015983;28;20042;-88
2020/12/06 10:10:33;;;;;;;25.27;13.77;;;2.60;43.60;;;;;;5014918;28;20120;-91
2020/12/06 10:12:59;;;;;;;28.63;15.50;;;3.40;42.40;;;;;;5015510;28;20554;-89
2020/12/06 10:15:26;;;;;;;22.45;12.00;;;4.30;41.30;;;;;;5022829;28;20017;-90
2020/12/06 10:17:53;;;;;;;23.67;12.35;;;5.10;39.30;;;;;;5006551;28;20061;-87
2020/12/06 10:20:21;;;;;;;25.30;12.13;;;5.30;38.10;;;;;;5045672;28;20106;-88
2020/12/06 10:22:47;;;;;;;31.88;14.40;;;5.00;38.00;;;;;;5077075;28;20110;-89
2020/12/06 10:25:12;;;;;;;29.50;16.92;;;4.00;38.10;;;;;;5094115;28;20025;-91
2020/12/06 10:27:38;;;;;;;27.05;12.93;;;3.20;39.00;;;;;;5076398;28;20047;-88
2020/12/06 10:30:05;;;;;;;23.15;15.35;;;2.40;39.50;;;;;;5067858;28;20047;-90
2020/12/06 10:32:33;;;;;;;21.27;12.38;;;1.50;40.30;;;;;;5079106;28;20017;-89
2020/12/06 10:34:59;;;;;;;25.17;12.95;;;1.00;41.60;;;;;;5045960;28;20111;-88
2020/12/06 10:37:25;;;;;;;23.17;14.85;;;0.50;42.50;;;;;;5082748;28;20028;-91
2020/12/06 10:39:51;;;;;;;26.92;14.38;;;0.10;43.40;;;;;;5079005;28;20092;-90
2020/12/06 10:42:20;;;;;;;22.80;11.63;;;0.00;44.20;;;;;;5082264;28;20044;-88
2020/12/06 10:44:46;;;;;;;24.60;14.40;;;-0.30;44.20;;;;;;5060696;28;20036;-89
2020/12/06 10:47:12;;;;;;;26.20;12.32;;;-0.50;45.00;;;;;;5082684;28;20373;-88
2020/12/06 10:49:41;;;;;;;23.73;13.48;;;-0.60;45.40;;;;;;5073594;28;20055;-89
2020/12/06 10:52:10;;;;;;;29.55;15.60;;;-0.70;45.90;;;;;;5094764;28;20019;-88
2020/12/06 10:54:36;;;;;;;17.80;12.20;;;-0.80;46.10;;;;;;5081581;28;20400;-88
2020/12/06 10:57:03;;;;;;;25.23;14.75;;;-0.90;46.20;;;;;;5080899;28;20017;-88
2020/12/06 10:59:29;;;;;;;27.00;14.25;;;-1.00;46.60;;;;;;5065762;28;20040;-89
2020/12/06 11:01:57;;;;;;;19.58;13.05;;;-1.20;46.80;;;;;;5081956;28;20020;-89
2020/12/06 11:04:23;;;;;;;25.17;14.18;;;-1.20;47.10;;;;;;5077696;28;20023;-92
2020/12/06 11:06:49;;;;;;;27.98;14.68;;;-1.30;47.30;;;;;;5081911;28;20020;-89
2020/12/06 11:09:15;;;;;;;36.33;14.80;;;-1.40;47.50;;;;;;5076668;28;20131;-89
2020/12/06 11:11:40;;;;;;;20.02;12.18;;;-1.40;47.70;;;;;;5058130;28;20017;-88
2020/12/06 11:14:07;;;;;;;25.70;13.23;;;-1.40;47.90;;;;;;5061951;28;20029;-89
2020/12/06 11:16:33;;;;;;;24.77;12.80;;;-1.40;48.30;;;;;;5063483;28;20024;-87
2020/12/06 11:18:59;;;;;;;21.45;12.43;;;-1.50;48.90;;;;;;5081135;28;20153;-89
2020/12/06 11:21:25;;;;;;;25.98;14.18;;;-1.50;48.90;;;;;;5064352;28;20075;-89
2020/12/06 11:23:54;;;;;;;24.60;13.02;;;-1.50;48.90;;;;;;5080728;28;20043;-88
2020/12/06 11:26:21;;;;;;;22.90;13.65;;;-1.50;48.90;;;;;;5081255;28;20489;-90
2020/12/06 11:28:47;;;;;;;27.80;13.88;;;-1.50;48.90;;;;;;5085119;28;20040;-91
2020/12/06 11:31:13;;;;;;;25.42;11.48;;;-1.50;49.00;;;;;;5064256;28;20009;-90
2020/12/06 11:33:40;;;;;;;23.63;13.15;;;-1.60;49.10;;;;;;5083358;28;20389;-90
2020/12/06 11:36:13;;;;;;;23.27;13.43;;;-1.70;49.20;;;;;;5081094;28;20066;-91
2020/12/06 11:38:42;;;;;;;27.17;13.07;;;-1.70;49.40;;;;;;5066979;28;20082;-90
2020/12/06 11:41:08;;;;;;;36.05;15.15;;;-1.70;49.60;;;;;;5068428;28;20025;-89
2020/12/06 11:43:34;;;;;;;24.23;12.90;;;-1.70;49.80;;;;;;5079125;28;20375;-91
2020/12/06 11:46:00;;;;;;;21.52;11.05;;;-1.60;49.90;;;;;;5062387;28;20025;-90
2020/12/06 11:48:26;;;;;;;25.73;11.63;;;-1.70;49.90;;;;;;5061095;28;20028;-90
2020/12/06 11:50:52;;;;;;;26.65;12.98;;;-1.70;49.80;;;;;;5067798;28;20474;-87
2020/12/06 11:53:18;;;;;;;17.70;10.60;;;-1.70;50.10;;;;;;5075801;28;20437;-88
2020/12/06 11:55:43;;;;;;;24.20;12.38;;;-1.70;50.20;;;;;;5062480;28;20052;-90
2020/12/06 11:58:09;;;;;;;26.27;11.65;;;-1.80;50.00;;;;;;5069872;28;20070;-89
2020/12/06 12:00:35;;;;;;;21.83;10.60;;;-1.80;50.00;;;;;;5037679;28;20029;-90
2020/12/06 12:03:02;;;;;;;24.83;10.73;;;-1.80;50.30;;;;;;5064871;28;20428;-89
2020/12/06 12:05:27;;;;;;;30.52;11.02;;;-1.80;50.50;;;;;;5078719;28;20015;-89
2020/12/06 12:07:53;;;;;;;19.08;11.15;;;-1.90;50.40;;;;;;5091950;28;20464;-89
2020/12/06 12:10:19;;;;;;;20.90;10.05;;;-1.90;50.30;;;;;;5066868;28;20020;-88
2020/12/06 12:12:47;;;;;;;20.33;10.98;;;-1.90;50.40;;;;;;5098785;28;20118;-89
2020/12/06 12:15:13;;;;;;;25.60;12.50;;;-1.90;50.60;;;;;;5067962;28;20053;-88
2020/12/06 12:17:40;;;;;;;17.85;9.48;;;-2.00;50.50;;;;;;5064858;28;20025;-90
2020/12/06 12:20:07;;;;;;;24.73;10.40;;;-2.00;50.40;;;;;;5063599;28;20036;-90
2020/12/06 12:22:34;;;;;;;20.40;9.02;;;-2.00;50.60;;;;;;5093555;28;20028;-89
2020/12/06 12:25:00;;;;;;;;;;;-2.10;50.30;;;;;;5064030;28;20033;-90
2020/12/06 12:27:26;;;;;;;22.17;11.57;;;-2.10;50.50;;;;;;5063691;28;19918;-88
2020/12/06 12:29:52;;;;;;;25.75;11.45;;;-2.20;50.50;;;;;;5093345;28;20017;-88
2020/12/06 12:32:18;;;;;;;17.73;9.75;;;-2.20;50.50;;;;;;5061772;28;20029;-87
2020/12/06 12:34:43;;;;;;;30.25;11.15;;;-2.20;50.70;;;;;;5080516;28;20042;-87